createdAt,value
2023-02-26T00:01:44.286Z,0.65
2023-02-26T00:04:12.774Z,0.54
2023-02-26T00:06:53.438Z,0.44
2023-02-26T00:09:26.296Z,0.37
2023-02-26T00:11:55.563Z,0.32
2023-02-26T00:14:24.798Z,0.24
2023-02-26T00:17:07.497Z,0.13
2023-02-26T00:19:36.135Z,-0.02
2023-02-26T00:22:04.895Z,-0.08
2023-02-26T00:24:34.477Z,-0.11
2023-02-26T00:27:02.635Z,-0.09
2023-02-26T00:29:31.236Z,-0.15
2023-02-26T00:31:59.984Z,-0.26
2023-02-26T00:34:28.704Z,-0.40
2023-02-26T00:37:09.965Z,-0.46
2023-02-26T00:39:48.306Z,-0.47
2023-02-26T00:42:18.040Z,-0.42
2023-02-26T00:44:46.765Z,-0.47
2023-02-26T00:47:23.098Z,-0.53
2023-02-26T00:50:05.845Z,-0.51
2023-02-26T00:52:40.199Z,-0.51
2023-02-26T00:55:10.078Z,-0.51
2023-02-26T00:57:38.845Z,-0.43
2023-02-26T01:00:09.038Z,-0.44
2023-02-26T01:02:39.905Z,-0.53
2023-02-26T01:05:10.218Z,-0.66
2023-02-26T01:07:45.336Z,-0.74
2023-02-26T01:10:15.816Z,-0.83
2023-02-26T01:12:44.504Z,-0.92
2023-02-26T01:15:13.556Z,-0.98
2023-02-26T01:17:48.836Z,-1.00
2023-02-26T01:20:20.680Z,-1.04
2023-02-26T01:22:55.546Z,-1.07
2023-02-26T01:25:31.537Z,-1.12
2023-02-26T01:28:00.031Z,-1.21
2023-02-26T01:30:28.915Z,-1.30
2023-02-26T01:33:04.651Z,-1.38
2023-02-26T01:35:42.818Z,-1.45
2023-02-26T01:38:21.790Z,-1.53
2023-02-26T01:41:14.566Z,-1.56
2023-02-26T01:43:52.106Z,-1.58
2023-02-26T01:46:26.614Z,-1.56
2023-02-26T01:48:56.988Z,-1.53
2023-02-26T01:51:46.625Z,-1.54
2023-02-26T01:54:17.198Z,-1.61
2023-02-26T01:56:50.320Z,-1.71
2023-02-26T01:59:24.490Z,-1.80
2023-02-26T02:01:54.809Z,-1.85
2023-02-26T02:04:24.936Z,-1.85
2023-02-26T02:06:53.796Z,-1.83
2023-02-26T02:09:22.077Z,-1.79
2023-02-26T02:12:08.289Z,-1.77
2023-02-26T02:14:47.420Z,-1.86
2023-02-26T02:17:25.428Z,-1.94
2023-02-26T02:20:10.119Z,-1.98
2023-02-26T02:22:53.033Z,-2.03
2023-02-26T02:25:41.616Z,-2.06
2023-02-26T02:28:24.684Z,-2.12
2023-02-26T02:31:06.828Z,-2.17
2023-02-26T02:33:45.254Z,-2.31
2023-02-26T02:36:21.490Z,-2.47
2023-02-26T02:38:53.916Z,-2.56
2023-02-26T02:41:27.487Z,-2.60
2023-02-26T02:43:57.029Z,-2.66
2023-02-26T02:46:31.499Z,-2.79
2023-02-26T02:49:03.474Z,-2.84
2023-02-26T02:51:35.504Z,-2.85
2023-02-26T02:54:09.942Z,-3.00
2023-02-26T02:56:44.280Z,-2.98
2023-02-26T02:59:19.442Z,-2.91
2023-02-26T03:01:53.300Z,-2.85
2023-02-26T03:04:21.325Z,-2.91
2023-02-26T03:06:50.209Z,-2.91
2023-02-26T03:09:19.965Z,-2.93
2023-02-26T03:11:48.048Z,-2.80
2023-02-26T03:14:16.996Z,-2.64
2023-02-26T03:17:02.037Z,-2.48
2023-02-26T03:19:39.927Z,-2.34
2023-02-26T03:22:14.749Z,-2.21
2023-02-26T03:25:06.621Z,-2.08
2023-02-26T03:27:42.150Z,-1.98
2023-02-26T03:30:19.131Z,-1.88
2023-02-26T03:32:58.274Z,-1.80
2023-02-26T03:35:32.292Z,-1.72
2023-02-26T03:38:05.242Z,-1.59
2023-02-26T03:40:38.215Z,-1.51
2023-02-26T03:43:13.666Z,-1.44
2023-02-26T03:45:45.434Z,-1.42
2023-02-26T03:48:20.494Z,-1.40
2023-02-26T03:50:52.562Z,-1.41
2023-02-26T03:53:47.034Z,-1.42
2023-02-26T03:56:27.461Z,-1.48
2023-02-26T03:59:18.797Z,-1.55
2023-02-26T04:01:52.908Z,-1.59
2023-02-26T04:04:27.745Z,-1.56
2023-02-26T04:06:57.212Z,-1.53
2023-02-26T04:09:25.887Z,-1.59
2023-02-26T04:11:55.816Z,-1.63
2023-02-26T04:14:24.047Z,-1.67
2023-02-26T04:16:53.571Z,-1.71
2023-02-26T04:19:23.785Z,-1.77
2023-02-26T04:21:52.336Z,-1.83
2023-02-26T04:24:20.685Z,-1.93
2023-02-26T04:26:49.865Z,-1.94
2023-02-26T04:29:18.330Z,-2.02
2023-02-26T04:31:46.642Z,-2.09
2023-02-26T04:34:15.116Z,-2.15
2023-02-26T04:36:44.540Z,-2.24
2023-02-26T04:39:13.163Z,-2.34
2023-02-26T04:41:42.160Z,-2.39
2023-02-26T04:44:10.486Z,-2.51
2023-02-26T04:46:42.690Z,-2.64
2023-02-26T04:49:11.289Z,-2.69
2023-02-26T04:51:44.067Z,-2.68
2023-02-26T04:54:14.544Z,-2.67
2023-02-26T04:56:43.012Z,-2.61
2023-02-26T04:59:11.274Z,-2.61
2023-02-26T05:01:40.067Z,-2.64
2023-02-26T05:04:09.708Z,-2.61
2023-02-26T05:06:38.639Z,-2.57
2023-02-26T05:09:08.085Z,-2.58
2023-02-26T05:11:36.218Z,-2.58
2023-02-26T05:14:04.419Z,-2.59
2023-02-26T05:16:32.774Z,-2.56
2023-02-26T05:19:01.019Z,-2.55
2023-02-26T05:21:29.492Z,-2.51
2023-02-26T05:23:57.619Z,-2.52
2023-02-26T05:26:27.349Z,-2.54
2023-02-26T05:28:55.805Z,-2.53
2023-02-26T05:31:24.034Z,-2.51
2023-02-26T05:33:52.248Z,-2.47
2023-02-26T05:36:20.354Z,-2.42
2023-02-26T05:38:48.517Z,-2.39
2023-02-26T05:41:16.651Z,-2.41
2023-02-26T05:43:46.037Z,-2.47
2023-02-26T05:46:14.227Z,-2.46
2023-02-26T05:48:44.182Z,-2.47
2023-02-26T05:51:13.796Z,-2.49
2023-02-26T05:53:41.867Z,-2.57
2023-02-26T05:56:10.062Z,-2.62
2023-02-26T05:58:38.586Z,-2.68
2023-02-26T06:01:08.213Z,-2.71
2023-02-26T06:03:36.357Z,-2.73
2023-02-26T06:06:04.560Z,-2.82
2023-02-26T06:08:32.630Z,-3.00
2023-02-26T06:11:00.830Z,-3.13
2023-02-26T06:13:29.072Z,-3.22
2023-02-26T06:15:57.286Z,-3.23
2023-02-26T06:18:27.009Z,-3.25
2023-02-26T06:20:55.137Z,-3.27
2023-02-26T06:23:23.260Z,-3.27
2023-02-26T06:25:52.505Z,-3.22
2023-02-26T06:28:21.231Z,-3.10
2023-02-26T06:30:49.367Z,-3.01
2023-02-26T06:33:17.493Z,-3.00
2023-02-26T06:35:47.207Z,-2.89
2023-02-26T06:38:15.836Z,-2.76
2023-02-26T06:40:43.968Z,-2.56
2023-02-26T06:43:12.130Z,-2.45
2023-02-26T06:45:40.338Z,-2.41
2023-02-26T06:48:08.486Z,-2.37
2023-02-26T06:50:36.825Z,-2.31
2023-02-26T06:53:06.499Z,-2.26
2023-02-26T06:55:34.695Z,-2.14
2023-02-26T06:58:02.815Z,-2.10
2023-02-26T07:00:31.038Z,-2.08
2023-02-26T07:02:59.424Z,-2.04
2023-02-26T07:05:27.739Z,-1.97
2023-02-26T07:07:56.032Z,-1.89
2023-02-26T07:10:26.160Z,-1.84
2023-02-26T07:12:54.285Z,-1.79
2023-02-26T07:15:22.382Z,-1.69
2023-02-26T07:17:50.477Z,-1.61
2023-02-26T07:20:19.282Z,-1.54
2023-02-26T07:22:47.413Z,-1.51
2023-02-26T07:25:15.992Z,-1.46
2023-02-26T07:27:45.431Z,-1.37
2023-02-26T07:30:14.522Z,-1.28
2023-02-26T07:32:42.621Z,-1.22
2023-02-26T07:35:11.531Z,-1.14
2023-02-26T07:37:39.891Z,-1.11
2023-02-26T07:40:08.916Z,-1.07
2023-02-26T07:42:37.018Z,-1.01
2023-02-26T07:45:08.125Z,-0.98
2023-02-26T07:47:36.307Z,-0.95
2023-02-26T07:50:05.256Z,-0.88
2023-02-26T07:52:33.424Z,-0.87
2023-02-26T07:55:01.520Z,-0.81
2023-02-26T07:57:29.609Z,-0.77
2023-02-26T07:59:57.746Z,-0.72
2023-02-26T08:02:27.426Z,-0.69
2023-02-26T08:04:55.523Z,-0.60
2023-02-26T08:07:24.112Z,-0.50
2023-02-26T08:09:52.276Z,-0.43
2023-02-26T08:12:20.436Z,-0.33
2023-02-26T08:14:48.617Z,-0.26
2023-02-26T08:17:16.738Z,-0.26
2023-02-26T08:19:46.099Z,-0.26
2023-02-26T08:22:14.274Z,-0.23
2023-02-26T08:24:42.604Z,-0.20
2023-02-26T08:27:12.663Z,-0.14
2023-02-26T08:29:41.703Z,-0.04
2023-02-26T08:32:10.550Z,0.12
2023-02-26T08:34:38.682Z,0.20
2023-02-26T08:37:09.313Z,0.28
2023-02-26T08:39:38.993Z,0.30
2023-02-26T08:42:08.684Z,0.28
2023-02-26T08:44:36.912Z,0.23
2023-02-26T08:47:05.101Z,0.26
2023-02-26T08:49:33.223Z,0.30
2023-02-26T08:52:01.361Z,0.30
2023-02-26T08:54:32.183Z,0.30
2023-02-26T08:57:00.344Z,0.30
2023-02-26T08:59:28.402Z,0.30
2023-02-26T09:01:56.671Z,0.33
2023-02-26T09:04:26.913Z,0.38
2023-02-26T09:06:55.995Z,0.41
2023-02-26T09:09:24.115Z,0.42
2023-02-26T09:11:53.677Z,0.43
2023-02-26T09:14:21.798Z,0.51
2023-02-26T09:16:51.236Z,0.58
2023-02-26T09:19:19.458Z,0.62
2023-02-26T09:21:48.276Z,0.77
2023-02-26T09:24:16.514Z,0.91
2023-02-26T09:26:44.695Z,1.04
2023-02-26T09:29:14.982Z,1.05
2023-02-26T09:31:43.404Z,0.99
2023-02-26T09:34:12.646Z,1.02
2023-02-26T09:36:41.544Z,1.12
2023-02-26T09:39:09.834Z,1.27
2023-02-26T09:41:40.894Z,1.35
2023-02-26T09:44:17.858Z,1.46
2023-02-26T09:46:54.352Z,1.51
2023-02-26T09:49:34.095Z,1.69
2023-02-26T09:52:13.179Z,1.86
2023-02-26T09:54:45.738Z,1.99
2023-02-26T09:57:23.457Z,2.02
2023-02-26T09:59:53.200Z,2.03
2023-02-26T10:02:29.198Z,2.05
2023-02-26T10:05:10.060Z,1.86
2023-02-26T10:07:46.670Z,1.74
2023-02-26T10:10:24.830Z,1.95
2023-02-26T10:12:54.132Z,2.13
2023-02-26T10:15:26.972Z,2.20
2023-02-26T10:18:04.501Z,2.07
2023-02-26T10:20:39.646Z,2.07
2023-02-26T10:23:19.795Z,2.38
2023-02-26T10:25:51.006Z,2.63
2023-02-26T10:28:34.871Z,3.06
2023-02-26T10:31:10.924Z,3.39
2023-02-26T10:33:44.966Z,3.31
2023-02-26T10:36:18.524Z,3.57
2023-02-26T10:38:51.186Z,3.84
2023-02-26T10:41:25.383Z,3.86
2023-02-26T10:44:01.858Z,3.76
2023-02-26T10:46:43.263Z,3.80
2023-02-26T10:49:31.564Z,4.00
2023-02-26T10:52:10.874Z,3.70
2023-02-26T10:54:44.175Z,3.45
2023-02-26T10:57:20.261Z,3.28
2023-02-26T10:59:48.380Z,3.33
2023-02-26T11:02:34.775Z,3.27
2023-02-26T11:05:07.950Z,3.21
2023-02-26T11:07:38.944Z,3.32
2023-02-26T11:10:16.819Z,3.44
2023-02-26T11:12:45.551Z,3.68
2023-02-26T11:15:16.573Z,4.19
2023-02-26T11:17:47.327Z,3.69
2023-02-26T11:20:23.397Z,3.40
2023-02-26T11:22:57.535Z,3.29
2023-02-26T11:25:29.514Z,3.94
2023-02-26T11:28:02.532Z,4.47
2023-02-26T11:30:34.005Z,4.77
2023-02-26T11:33:08.850Z,5.20
2023-02-26T11:35:37.750Z,5.77
2023-02-26T11:38:06.135Z,6.19
2023-02-26T11:40:39.695Z,6.47
2023-02-26T11:43:13.238Z,6.00
2023-02-26T11:45:46.669Z,6.25
2023-02-26T11:48:24.645Z,6.00
2023-02-26T11:50:58.201Z,5.57
2023-02-26T11:53:33.469Z,5.02
2023-02-26T11:56:04.550Z,4.73
2023-02-26T11:58:38.516Z,4.31
2023-02-26T12:01:09.861Z,4.09
2023-02-26T12:03:41.418Z,3.94
2023-02-26T12:06:17.604Z,3.82
2023-02-26T12:08:46.002Z,3.66
2023-02-26T12:11:33.329Z,3.52
2023-02-26T12:14:11.377Z,3.53
2023-02-26T12:16:50.806Z,3.78
2023-02-26T12:19:31.392Z,3.96
2023-02-26T12:22:26.878Z,4.17
2023-02-26T12:25:10.224Z,4.25
2023-02-26T12:27:50.944Z,3.94
2023-02-26T12:30:36.895Z,3.66
2023-02-26T12:33:19.335Z,3.76
2023-02-26T12:36:03.280Z,3.72
2023-02-26T12:38:39.617Z,3.78
2023-02-26T12:41:29.917Z,4.08
2023-02-26T12:43:59.811Z,4.52
2023-02-26T12:46:39.249Z,4.28
2023-02-26T12:49:30.505Z,4.04
2023-02-26T12:52:19.356Z,3.71
2023-02-26T12:55:02.398Z,3.46
2023-02-26T12:58:03.520Z,4.04
2023-02-26T13:00:48.273Z,5.08
2023-02-26T13:03:44.374Z,5.83
2023-02-26T13:06:41.712Z,6.20
2023-02-26T13:09:22.230Z,6.06
2023-02-26T13:12:03.950Z,5.24
2023-02-26T13:14:43.126Z,4.69
2023-02-26T13:17:17.313Z,4.23
2023-02-26T13:19:49.338Z,3.92
2023-02-26T13:22:21.723Z,3.68
2023-02-26T13:24:58.503Z,3.87
2023-02-26T13:27:30.963Z,4.43
2023-02-26T13:30:18.481Z,5.02
2023-02-26T13:32:49.059Z,4.79
2023-02-26T13:35:22.760Z,4.68
2023-02-26T13:37:54.290Z,4.33
2023-02-26T13:40:47.164Z,4.03
2023-02-26T13:43:39.948Z,3.90
2023-02-26T13:46:22.080Z,3.90
2023-02-26T13:49:12.978Z,3.84
2023-02-26T13:51:43.997Z,3.92
2023-02-26T13:54:34.010Z,4.50
2023-02-26T13:57:11.583Z,5.06
2023-02-26T13:59:50.158Z,5.21
2023-02-26T14:02:38.346Z,5.33
2023-02-26T14:05:29.268Z,5.16
2023-02-26T14:08:21.007Z,4.93
2023-02-26T14:10:57.328Z,5.02
2023-02-26T14:13:35.238Z,5.26
2023-02-26T14:16:17.992Z,5.40
2023-02-26T14:18:52.495Z,5.09
2023-02-26T14:21:40.878Z,4.88
2023-02-26T14:24:18.374Z,4.63
2023-02-26T14:26:50.882Z,4.32
2023-02-26T14:29:27.295Z,4.35
2023-02-26T14:32:06.094Z,4.50
2023-02-26T14:34:37.657Z,4.64
2023-02-26T14:37:09.701Z,4.86
2023-02-26T14:39:40.828Z,5.03
2023-02-26T14:42:15.912Z,5.08
2023-02-26T14:44:48.243Z,5.23
2023-02-26T14:47:17.705Z,5.37
2023-02-26T14:49:49.484Z,5.46
2023-02-26T14:52:47.286Z,5.20
2023-02-26T14:55:36.555Z,4.83
2023-02-26T14:58:19.674Z,4.58
2023-02-26T15:00:55.005Z,4.48
2023-02-26T15:03:52.966Z,4.43
2023-02-26T15:06:39.185Z,4.26
2023-02-26T15:09:18.728Z,4.08
2023-02-26T15:12:01.475Z,4.04
2023-02-26T15:14:47.726Z,3.91
2023-02-26T15:17:33.096Z,3.70
2023-02-26T15:20:12.620Z,3.56
2023-02-26T15:22:56.686Z,3.66
2023-02-26T15:25:30.625Z,3.78
2023-02-26T15:27:59.337Z,3.83
2023-02-26T15:30:28.617Z,3.89
2023-02-26T15:33:00.526Z,3.92
2023-02-26T15:35:30.455Z,3.99
2023-02-26T15:38:01.639Z,4.10
2023-02-26T15:40:33.502Z,4.18
2023-02-26T15:43:03.194Z,4.19
2023-02-26T15:45:36.122Z,4.14
2023-02-26T15:48:08.857Z,4.12
2023-02-26T15:50:40.649Z,4.03
2023-02-26T15:53:12.731Z,4.02
2023-02-26T15:55:48.284Z,4.03
2023-02-26T15:58:23.078Z,4.05
2023-02-26T16:00:55.832Z,4.05
2023-02-26T16:03:33.967Z,4.04
2023-02-26T16:06:02.255Z,4.04
2023-02-26T16:08:31.008Z,4.00
2023-02-26T16:11:02.127Z,3.92
2023-02-26T16:13:34.515Z,3.91
2023-02-26T16:16:05.682Z,3.96
2023-02-26T16:18:35.906Z,3.92
2023-02-26T16:21:07.036Z,3.86
2023-02-26T16:23:45.236Z,3.80
2023-02-26T16:26:18.518Z,3.76
2023-02-26T16:28:49.015Z,3.69
2023-02-26T16:31:20.952Z,3.57
2023-02-26T16:33:56.064Z,3.35
2023-02-26T16:36:28.821Z,3.17
2023-02-26T16:39:02.220Z,3.05
2023-02-26T16:41:35.082Z,2.99
2023-02-26T16:44:05.604Z,2.92
2023-02-26T16:46:42.647Z,2.82
2023-02-26T16:49:21.517Z,2.72
2023-02-26T16:51:50.226Z,2.69
2023-02-26T16:54:22.614Z,2.68
2023-02-26T16:56:56.685Z,2.78
2023-02-26T16:59:27.138Z,2.89
2023-02-26T17:01:58.825Z,2.94
2023-02-26T17:04:31.924Z,2.97
2023-02-26T17:07:00.407Z,2.91
2023-02-26T17:09:37.472Z,2.82
2023-02-26T17:12:13.765Z,2.74
2023-02-26T17:14:43.716Z,2.61
2023-02-26T17:17:12.454Z,2.49
2023-02-26T17:19:41.883Z,2.36
2023-02-26T17:22:14.870Z,2.27
2023-02-26T17:24:45.700Z,2.17
2023-02-26T17:27:17.871Z,2.06
2023-02-26T17:29:51.034Z,1.91
2023-02-26T17:32:21.602Z,1.79
2023-02-26T17:34:51.743Z,1.72
2023-02-26T17:37:20.336Z,1.61
2023-02-26T17:39:48.534Z,1.60
2023-02-26T17:42:21.423Z,1.50
2023-02-26T17:44:50.569Z,1.30
2023-02-26T17:47:21.284Z,1.11
2023-02-26T17:49:51.216Z,0.94
2023-02-26T17:52:19.621Z,0.81
2023-02-26T17:54:48.053Z,0.62
2023-02-26T17:57:19.070Z,0.42
2023-02-26T17:59:47.356Z,0.22
2023-02-26T18:02:18.461Z,0.01
2023-02-26T18:04:46.687Z,-0.18
2023-02-26T18:07:17.720Z,-0.36
2023-02-26T18:09:46.462Z,-0.40
2023-02-26T18:12:16.046Z,-0.38
2023-02-26T18:14:44.828Z,-0.38
2023-02-26T18:17:14.955Z,-0.34
2023-02-26T18:19:43.825Z,-0.35
2023-02-26T18:22:14.722Z,-0.39
2023-02-26T18:24:44.377Z,-0.38
2023-02-26T18:27:15.370Z,-0.42
2023-02-26T18:29:44.071Z,-0.48
2023-02-26T18:32:14.969Z,-0.63
2023-02-26T18:34:43.305Z,-0.81
2023-02-26T18:37:14.628Z,-0.97
2023-02-26T18:39:44.376Z,-1.14
2023-02-26T18:42:20.857Z,-1.34
2023-02-26T18:44:49.677Z,-1.52
2023-02-26T18:47:18.818Z,-1.70
2023-02-26T18:49:47.657Z,-1.88
2023-02-26T18:52:15.902Z,-2.00
2023-02-26T18:54:45.616Z,-2.12
2023-02-26T18:57:15.126Z,-2.23
2023-02-26T18:59:43.236Z,-2.37
2023-02-26T19:02:13.813Z,-2.43
2023-02-26T19:04:42.645Z,-2.46
2023-02-26T19:07:11.113Z,-2.53
2023-02-26T19:09:39.482Z,-2.62
2023-02-26T19:12:10.910Z,-2.76
2023-02-26T19:14:39.967Z,-2.89
2023-02-26T19:17:08.109Z,-2.99
2023-02-26T19:19:36.345Z,-3.07
2023-02-26T19:22:04.627Z,-3.15
2023-02-26T19:24:32.768Z,-3.23
2023-02-26T19:27:00.859Z,-3.33
2023-02-26T19:29:30.377Z,-3.35
2023-02-26T19:31:58.760Z,-3.39
2023-02-26T19:34:27.275Z,-3.50
2023-02-26T19:36:56.231Z,-3.57
2023-02-26T19:39:24.844Z,-3.66
2023-02-26T19:41:53.902Z,-3.65
2023-02-26T19:44:23.167Z,-3.64
2023-02-26T19:46:53.923Z,-3.66
2023-02-26T19:49:23.203Z,-3.67
2023-02-26T19:51:51.548Z,-3.69
2023-02-26T19:54:20.245Z,-3.79
2023-02-26T19:56:49.512Z,-3.79
2023-02-26T19:59:18.716Z,-3.77
2023-02-26T20:01:49.709Z,-3.80
2023-02-26T20:04:19.852Z,-3.85
2023-02-26T20:06:48.053Z,-3.85
2023-02-26T20:09:17.221Z,-3.85
2023-02-26T20:11:45.503Z,-3.79
2023-02-26T20:14:13.648Z,-3.74
2023-02-26T20:16:41.913Z,-3.71
2023-02-26T20:19:10.128Z,-3.65
2023-02-26T20:21:39.518Z,-3.76
2023-02-26T20:24:08.345Z,-3.78
2023-02-26T20:26:41.030Z,-3.76
2023-02-26T20:29:09.686Z,-3.81
2023-02-26T20:31:38.011Z,-3.91
2023-02-26T20:34:06.685Z,-3.95
2023-02-26T20:36:35.242Z,-3.99
2023-02-26T20:39:04.746Z,-3.93
2023-02-26T20:41:32.888Z,-4.02
2023-02-26T20:44:01.092Z,-4.04
2023-02-26T20:46:31.132Z,-3.99
2023-02-26T20:49:00.855Z,-4.05
2023-02-26T20:51:29.307Z,-3.98
2023-02-26T20:53:57.666Z,-3.89
2023-02-26T20:56:27.066Z,-3.87
2023-02-26T20:58:55.212Z,-3.91
2023-02-26T21:01:23.254Z,-3.92
2023-02-26T21:03:54.094Z,-3.93
2023-02-26T21:06:24.012Z,-3.89
2023-02-26T21:08:52.114Z,-4.00
2023-02-26T21:11:20.206Z,-4.03
2023-02-26T21:13:49.624Z,-4.02
2023-02-26T21:16:17.836Z,-4.05
2023-02-26T21:18:46.184Z,-4.10
2023-02-26T21:21:14.456Z,-4.22
2023-02-26T21:23:42.492Z,-4.20
2023-02-26T21:26:10.707Z,-4.24
2023-02-26T21:28:38.975Z,-4.18
2023-02-26T21:31:08.505Z,-4.11
2023-02-26T21:33:36.659Z,-4.07
2023-02-26T21:36:06.397Z,-4.11
2023-02-26T21:38:34.516Z,-4.14
2023-02-26T21:41:02.646Z,-4.15
2023-02-26T21:43:30.723Z,-4.12
2023-02-26T21:45:58.806Z,-4.13
2023-02-26T21:48:28.194Z,-4.11
2023-02-26T21:50:56.707Z,-4.13
2023-02-26T21:53:24.875Z,-4.26
2023-02-26T21:55:53.035Z,-4.33
2023-02-26T21:58:21.144Z,-4.38
2023-02-26T22:00:49.505Z,-4.45
2023-02-26T22:03:17.936Z,-4.50
2023-02-26T22:05:47.361Z,-4.48
2023-02-26T22:08:15.457Z,-4.41
2023-02-26T22:10:45.600Z,-4.43
2023-02-26T22:13:13.888Z,-4.46
2023-02-26T22:15:42.741Z,-4.43
2023-02-26T22:18:10.852Z,-4.40
2023-02-26T22:20:39.228Z,-4.43
2023-02-26T22:23:08.680Z,-4.44
2023-02-26T22:25:37.670Z,-4.42
2023-02-26T22:28:05.975Z,-4.39
2023-02-26T22:30:34.183Z,-4.46
2023-02-26T22:33:02.275Z,-4.44
2023-02-26T22:35:30.597Z,-4.44
2023-02-26T22:37:58.703Z,-4.51
2023-02-26T22:40:28.180Z,-4.57
2023-02-26T22:42:56.428Z,-4.56
2023-02-26T22:45:24.646Z,-4.58
2023-02-26T22:47:52.899Z,-4.62
2023-02-26T22:50:21.426Z,-4.64
2023-02-26T22:52:49.509Z,-4.66
2023-02-26T22:55:17.796Z,-4.61
2023-02-26T22:57:47.208Z,-4.66
2023-02-26T23:00:18.760Z,-4.55
2023-02-26T23:02:47.207Z,-4.51
2023-02-26T23:05:15.963Z,-4.48
2023-02-26T23:07:44.812Z,-4.47
2023-02-26T23:10:16.161Z,-4.48
2023-02-26T23:12:44.743Z,-4.61
2023-02-26T23:15:14.894Z,-4.70
2023-02-26T23:17:43.690Z,-4.68
2023-02-26T23:20:14.931Z,-4.74
2023-02-26T23:22:45.955Z,-4.75
2023-02-26T23:25:14.122Z,-4.72
2023-02-26T23:27:42.228Z,-4.72
2023-02-26T23:30:11.460Z,-4.72
2023-02-26T23:32:40.929Z,-4.63
2023-02-26T23:35:09.494Z,-4.54
2023-02-26T23:37:37.650Z,-4.47
2023-02-26T23:40:07.696Z,-4.60
2023-02-26T23:42:35.868Z,-4.65
2023-02-26T23:45:04.145Z,-4.66
2023-02-26T23:47:32.217Z,-4.59
2023-02-26T23:50:01.640Z,-4.50
2023-02-26T23:52:29.735Z,-4.62
2023-02-26T23:54:57.899Z,-4.77
2023-02-26T23:57:26.470Z,-4.81
2023-02-26T23:59:54.626Z,-4.76
